createdAt,value
2019-01-19T00:01:32.528Z,29.33
2019-01-19T00:04:46.867Z,27.13
2019-01-19T00:07:35.645Z,26.50
2019-01-19T00:10:41.223Z,28.10
2019-01-19T00:13:23.807Z,26.77
2019-01-19T00:16:24.614Z,26.23
2019-01-19T00:19:30.265Z,30.73
2019-01-19T00:22:22.074Z,23.17
2019-01-19T00:25:15.218Z,24.40
2019-01-19T00:27:51.887Z,23.67
2019-01-19T00:30:43.034Z,21.87
2019-01-19T00:33:29.658Z,23.77
2019-01-19T00:36:06.309Z,22.37
2019-01-19T00:38:49.036Z,25.27
2019-01-19T00:41:26.033Z,27.10
2019-01-19T00:44:20.725Z,26.20
2019-01-19T00:47:06.376Z,22.83
2019-01-19T00:49:42.007Z,24.80
2019-01-19T00:52:27.446Z,26.90
2019-01-19T00:55:16.307Z,24.03
2019-01-19T00:58:07.901Z,25.53
2019-01-19T01:00:47.331Z,25.97
2019-01-19T01:03:29.787Z,25.63
2019-01-19T01:06:18.774Z,25.13
2019-01-19T01:09:04.591Z,23.60
2019-01-19T01:12:08.453Z,26.97
2019-01-19T01:15:04.296Z,27.47
2019-01-19T01:17:40.130Z,27.57
2019-01-19T01:20:37.861Z,26.27
2019-01-19T01:23:34.265Z,29.97
2019-01-19T01:26:52.085Z,30.20
2019-01-19T01:29:46.591Z,23.03
2019-01-19T01:32:32.301Z,27.63
2019-01-19T01:35:17.853Z,24.97
2019-01-19T01:38:09.688Z,30.53
2019-01-19T01:40:49.317Z,31.13
2019-01-19T01:43:40.703Z,26.97
2019-01-19T01:46:44.673Z,26.70
2019-01-19T01:49:24.403Z,26.50
2019-01-19T01:52:12.922Z,25.43
2019-01-19T01:54:55.246Z,27.60
2019-01-19T01:57:28.989Z,27.30
2019-01-19T02:00:11.493Z,26.57
2019-01-19T02:03:06.209Z,26.20
2019-01-19T02:05:59.542Z,26.87
2019-01-19T02:08:39.274Z,25.93
2019-01-19T02:11:24.849Z,27.83
2019-01-19T02:14:10.518Z,30.50
2019-01-19T02:17:06.728Z,33.33
2019-01-19T02:19:59.983Z,27.20
2019-01-19T02:22:51.678Z,29.33
2019-01-19T02:25:55.327Z,27.13
2019-01-19T02:28:44.226Z,28.13
2019-01-19T02:31:29.967Z,27.67
2019-01-19T02:34:15.868Z,25.67
2019-01-19T02:36:55.231Z,29.00
2019-01-19T02:39:47.206Z,28.73
2019-01-19T02:42:42.327Z,30.57
2019-01-19T02:45:36.958Z,28.43
2019-01-19T02:48:48.475Z,26.07
2019-01-19T02:51:27.777Z,28.40
2019-01-19T02:54:33.000Z,31.70
2019-01-19T02:57:12.426Z,31.93
2019-01-19T03:00:04.043Z,31.50
2019-01-19T03:02:46.572Z,27.33
2019-01-19T03:05:29.231Z,28.70
2019-01-19T03:08:17.713Z,33.17
2019-01-19T03:11:05.788Z,28.50
2019-01-19T03:13:42.494Z,29.57
2019-01-19T03:16:40.830Z,29.67
2019-01-19T03:19:43.085Z,33.07
2019-01-19T03:22:34.903Z,36.13
2019-01-19T03:25:45.454Z,31.47
2019-01-19T03:28:31.178Z,28.63
2019-01-19T03:31:32.003Z,35.90
2019-01-19T03:34:20.850Z,32.93
2019-01-19T03:37:16.792Z,38.20
2019-01-19T03:40:04.899Z,33.73
2019-01-19T03:42:56.926Z,35.13
2019-01-19T03:45:37.305Z,37.10
2019-01-19T03:48:14.013Z,35.80
2019-01-19T03:51:13.750Z,38.07
2019-01-19T03:53:50.516Z,37.43
2019-01-19T03:56:36.205Z,34.73
2019-01-19T03:59:47.672Z,36.87
2019-01-19T04:02:43.739Z,32.97
2019-01-19T04:05:52.075Z,35.73
2019-01-19T04:08:57.400Z,36.87
2019-01-19T04:11:54.710Z,36.77
2019-01-19T04:15:14.247Z,36.53
2019-01-19T04:18:08.637Z,30.10
2019-01-19T04:21:03.348Z,32.67
2019-01-19T04:23:37.546Z,29.87
2019-01-19T04:26:15.540Z,28.77
2019-01-19T04:28:49.515Z,27.77
2019-01-19T04:31:23.188Z,29.20
2019-01-19T04:34:03.613Z,28.10
2019-01-19T04:36:37.545Z,29.53
2019-01-19T04:39:17.228Z,29.17
2019-01-19T04:41:50.840Z,29.37
2019-01-19T04:44:24.503Z,29.37
2019-01-19T04:46:58.148Z,30.13
2019-01-19T04:49:31.817Z,31.17
2019-01-19T04:52:05.498Z,34.07
2019-01-19T04:54:39.275Z,25.73
2019-01-19T04:57:12.853Z,27.13
2019-01-19T04:59:46.791Z,34.73
2019-01-19T05:02:20.479Z,28.70
2019-01-19T05:05:06.498Z,28.97
2019-01-19T05:07:40.176Z,30.60
2019-01-19T05:10:14.034Z,30.47
2019-01-19T05:12:48.932Z,27.40
2019-01-19T05:15:22.674Z,30.93
2019-01-19T05:17:56.506Z,29.57
2019-01-19T05:20:52.010Z,31.93
2019-01-19T05:23:26.174Z,28.73
2019-01-19T05:26:10.903Z,28.83
2019-01-19T05:28:44.567Z,31.30
2019-01-19T05:31:22.657Z,30.43
2019-01-19T05:33:56.390Z,34.67
2019-01-19T05:36:38.045Z,31.33
2019-01-19T05:39:19.462Z,32.00
2019-01-19T05:41:53.074Z,36.57
2019-01-19T05:44:29.983Z,32.60
2019-01-19T05:47:03.679Z,36.13
2019-01-19T05:49:51.007Z,37.33
2019-01-19T05:52:24.702Z,33.20
2019-01-19T05:55:20.257Z,36.03
2019-01-19T05:57:53.913Z,32.67
2019-01-19T06:00:29.268Z,37.90
2019-01-19T06:03:24.666Z,35.07
2019-01-19T06:05:58.593Z,32.43
2019-01-19T06:08:32.254Z,32.83
2019-01-19T06:11:06.018Z,38.57
2019-01-19T06:13:39.712Z,33.63
2019-01-19T06:16:26.579Z,47.03
2019-01-19T06:19:00.440Z,42.30
2019-01-19T06:21:34.632Z,40.30
2019-01-19T06:24:26.590Z,41.30
2019-01-19T06:27:00.162Z,37.83
2019-01-19T06:29:40.215Z,33.47
2019-01-19T06:32:13.914Z,40.13
2019-01-19T06:34:57.232Z,41.73
2019-01-19T06:37:30.816Z,39.00
2019-01-19T06:40:07.549Z,30.20
2019-01-19T06:42:41.305Z,39.60
2019-01-19T06:45:17.583Z,37.30
2019-01-19T06:47:51.214Z,34.70
2019-01-19T06:50:24.986Z,29.67
2019-01-19T06:52:58.675Z,33.50
2019-01-19T06:55:44.439Z,33.93
2019-01-19T06:58:18.064Z,29.13
2019-01-19T07:00:51.722Z,30.60
2019-01-19T07:03:25.753Z,34.07
2019-01-19T07:05:59.422Z,33.03
2019-01-19T07:08:33.039Z,29.87
2019-01-19T07:11:06.644Z,34.40
2019-01-19T07:13:40.336Z,34.50
2019-01-19T07:16:13.934Z,29.70
2019-01-19T07:18:47.631Z,33.93
2019-01-19T07:21:21.295Z,33.73
2019-01-19T07:24:07.001Z,32.13
2019-01-19T07:26:40.710Z,42.90
2019-01-19T07:29:20.477Z,38.47
2019-01-19T07:31:54.075Z,34.00
2019-01-19T07:34:27.721Z,28.70
2019-01-19T07:37:02.065Z,27.50
2019-01-19T07:39:36.037Z,28.53
2019-01-19T07:42:09.699Z,23.97
2019-01-19T07:44:43.392Z,29.63
2019-01-19T07:47:20.487Z,36.13
2019-01-19T07:49:54.109Z,40.13
2019-01-19T07:52:27.787Z,43.70
2019-01-19T07:55:01.402Z,49.53
2019-01-19T07:57:35.092Z,52.97
2019-01-19T08:00:29.352Z,47.97
2019-01-19T08:03:03.114Z,50.00
2019-01-19T08:05:36.838Z,49.27
2019-01-19T08:08:10.573Z,40.80
2019-01-19T08:10:44.192Z,42.70
2019-01-19T08:13:17.865Z,40.73
2019-01-19T08:16:01.361Z,41.37
2019-01-19T08:18:35.026Z,42.67
2019-01-19T08:21:23.822Z,44.23
2019-01-19T08:23:57.537Z,45.63
2019-01-19T08:26:49.816Z,53.13
2019-01-19T08:29:23.810Z,49.30
2019-01-19T08:32:01.534Z,46.50
2019-01-19T08:34:35.152Z,49.43
2019-01-19T08:37:08.819Z,47.90
2019-01-19T08:39:50.912Z,49.10
2019-01-19T08:42:24.560Z,41.03
2019-01-19T08:44:58.428Z,37.20
2019-01-19T08:47:39.463Z,39.73
2019-01-19T08:50:13.201Z,38.77
2019-01-19T08:52:46.946Z,35.50
2019-01-19T08:55:20.640Z,39.40
2019-01-19T08:57:54.413Z,39.60
2019-01-19T09:00:28.096Z,40.70
2019-01-19T09:03:10.800Z,44.50
2019-01-19T09:05:44.461Z,47.30
2019-01-19T09:08:18.077Z,39.67
2019-01-19T09:10:51.733Z,47.43
2019-01-19T09:13:25.415Z,44.00
2019-01-19T09:15:59.306Z,53.80
2019-01-19T09:18:34.344Z,48.07
2019-01-19T09:21:08.307Z,46.43
2019-01-19T09:23:48.432Z,43.57
2019-01-19T09:26:22.263Z,43.40
2019-01-19T09:28:59.438Z,48.00
2019-01-19T09:31:33.165Z,53.90
2019-01-19T09:34:06.929Z,50.80
2019-01-19T09:36:49.695Z,48.20
2019-01-19T09:39:23.373Z,48.00
2019-01-19T09:41:57.063Z,42.97
2019-01-19T09:44:37.922Z,48.87
2019-01-19T09:47:11.536Z,43.70
2019-01-19T09:49:45.218Z,48.33
2019-01-19T09:52:25.289Z,48.57
2019-01-19T09:54:58.949Z,53.90
2019-01-19T09:57:32.624Z,51.30
2019-01-19T10:00:09.234Z,63.20
2019-01-19T10:02:42.868Z,53.33
2019-01-19T10:05:22.078Z,42.13
2019-01-19T10:07:55.817Z,49.07
2019-01-19T10:10:35.571Z,46.50
2019-01-19T10:13:09.335Z,43.00
2019-01-19T10:15:49.256Z,51.13
2019-01-19T10:18:24.241Z,53.70
2019-01-19T10:20:58.529Z,48.87
2019-01-19T10:23:37.006Z,47.97
2019-01-19T10:26:10.741Z,44.23
2019-01-19T10:28:46.060Z,43.47
2019-01-19T10:31:19.725Z,38.23
2019-01-19T10:33:53.502Z,40.33
2019-01-19T10:36:27.161Z,47.43
2019-01-19T10:39:00.877Z,42.80
2019-01-19T10:41:40.806Z,45.87
2019-01-19T10:44:09.889Z,50.57
2019-01-19T10:46:50.734Z,47.27
2019-01-19T10:49:24.433Z,42.13
2019-01-19T10:51:59.424Z,42.03
2019-01-19T10:54:36.427Z,44.03
2019-01-19T10:57:10.080Z,40.60
2019-01-19T10:59:43.783Z,40.33
2019-01-19T11:02:29.669Z,38.73
2019-01-19T11:05:04.470Z,41.70
2019-01-19T11:07:39.169Z,37.00
2019-01-19T11:10:27.592Z,46.10
2019-01-19T11:13:01.453Z,47.03
2019-01-19T11:15:39.716Z,40.87
2019-01-19T11:18:13.408Z,38.77
2019-01-19T11:20:47.357Z,46.37
2019-01-19T11:23:21.042Z,48.00
2019-01-19T11:25:54.701Z,41.70
2019-01-19T11:28:37.169Z,39.23
2019-01-19T11:31:11.299Z,42.47
2019-01-19T11:33:57.213Z,43.23
2019-01-19T11:36:30.944Z,47.17
2019-01-19T11:39:06.825Z,43.10
2019-01-19T11:41:40.481Z,41.87
2019-01-19T11:44:14.109Z,43.83
2019-01-19T11:46:47.718Z,47.93
2019-01-19T11:49:21.415Z,36.67
2019-01-19T11:51:55.014Z,31.53
2019-01-19T11:54:28.995Z,35.93
2019-01-19T11:57:02.751Z,43.37
2019-01-19T11:59:36.372Z,42.80
2019-01-19T12:02:10.145Z,42.27
2019-01-19T12:04:43.713Z,43.77
2019-01-19T12:07:44.004Z,42.93
2019-01-19T12:10:26.081Z,32.70
2019-01-19T12:13:09.006Z,40.53
2019-01-19T12:15:42.749Z,43.27
2019-01-19T12:18:16.545Z,42.23
2019-01-19T12:20:57.815Z,38.10
2019-01-19T12:23:31.501Z,42.80
2019-01-19T12:26:05.221Z,42.23
2019-01-19T12:28:43.793Z,38.93
2019-01-19T12:31:17.491Z,40.00
2019-01-19T12:33:56.078Z,37.13
2019-01-19T12:36:29.710Z,41.27
2019-01-19T12:39:05.024Z,32.53
2019-01-19T12:41:38.793Z,37.23
2019-01-19T12:44:19.961Z,31.63
2019-01-19T12:46:53.706Z,35.20
2019-01-19T12:49:32.072Z,28.03
2019-01-19T12:52:05.799Z,26.83
2019-01-19T12:54:39.508Z,35.77
2019-01-19T12:57:16.303Z,37.10
2019-01-19T12:59:49.917Z,40.53
2019-01-19T13:02:23.644Z,35.27
2019-01-19T13:04:57.387Z,34.97
2019-01-19T13:07:31.142Z,38.37
2019-01-19T13:10:15.388Z,40.27
2019-01-19T13:12:49.962Z,39.47
2019-01-19T13:15:47.987Z,36.13
2019-01-19T13:18:31.239Z,34.83
2019-01-19T13:21:36.754Z,37.10
2019-01-19T13:24:40.233Z,39.63
2019-01-19T13:27:25.636Z,29.57
2019-01-19T13:30:20.709Z,37.80
2019-01-19T13:33:12.698Z,37.57
2019-01-19T13:36:09.209Z,35.47
2019-01-19T13:38:51.683Z,33.00
2019-01-19T13:41:59.089Z,43.90
2019-01-19T13:44:52.675Z,33.97
2019-01-19T13:48:04.762Z,42.63
2019-01-19T13:51:02.440Z,44.03
2019-01-19T13:53:39.136Z,42.03
2019-01-19T13:56:21.775Z,42.60
2019-01-19T13:59:28.170Z,46.10
2019-01-19T14:02:38.364Z,48.53
2019-01-19T14:05:26.854Z,46.60
2019-01-19T14:08:23.078Z,48.53
2019-01-19T14:11:05.676Z,50.03
2019-01-19T14:13:53.711Z,44.83
2019-01-19T14:16:39.146Z,48.00
2019-01-19T14:19:37.278Z,49.90
2019-01-19T14:22:23.215Z,50.73
2019-01-19T14:25:32.363Z,60.47
2019-01-19T14:28:12.265Z,63.17
2019-01-19T14:31:05.757Z,61.73
2019-01-19T14:33:45.379Z,62.13
2019-01-19T14:36:52.534Z,65.77
2019-01-19T14:39:43.541Z,54.67
2019-01-19T14:42:28.745Z,54.13
2019-01-19T14:45:17.350Z,61.47
2019-01-19T14:48:07.505Z,53.97
2019-01-19T14:50:54.011Z,55.63
2019-01-19T14:53:36.673Z,56.73
2019-01-19T14:56:30.042Z,66.80
2019-01-19T14:59:25.007Z,60.27
2019-01-19T15:02:07.334Z,63.73
2019-01-19T15:04:47.007Z,62.33
2019-01-19T15:07:54.118Z,52.27
2019-01-19T15:10:47.543Z,50.37
2019-01-19T15:14:02.602Z,48.80
2019-01-19T15:17:11.350Z,54.50
2019-01-19T15:20:04.496Z,55.80
2019-01-19T15:23:07.166Z,57.00
2019-01-19T15:25:55.570Z,63.13
2019-01-19T15:28:51.839Z,62.63
2019-01-19T15:31:37.524Z,63.30
2019-01-19T15:34:16.996Z,56.00
2019-01-19T15:37:14.766Z,54.23
2019-01-19T15:40:10.457Z,60.80
2019-01-19T15:42:59.119Z,76.93
2019-01-19T15:45:41.421Z,65.07
2019-01-19T15:48:18.459Z,61.80
2019-01-19T15:51:19.635Z,65.63
2019-01-19T15:54:14.483Z,61.53
2019-01-19T15:57:05.783Z,59.73
2019-01-19T15:59:54.524Z,74.50
2019-01-19T16:03:04.843Z,67.80
2019-01-19T16:06:03.820Z,72.00
2019-01-19T16:08:46.496Z,69.47
2019-01-19T16:11:32.411Z,63.50
2019-01-19T16:14:30.319Z,66.43
2019-01-19T16:17:25.404Z,70.57
2019-01-19T16:20:18.821Z,69.37
2019-01-19T16:23:01.874Z,61.23
2019-01-19T16:25:56.563Z,61.17
2019-01-19T16:28:54.259Z,63.23
2019-01-19T16:31:52.465Z,67.17
2019-01-19T16:34:57.939Z,66.83
2019-01-19T16:37:34.659Z,67.80
2019-01-19T16:40:33.867Z,54.50
2019-01-19T16:43:22.713Z,53.27
2019-01-19T16:46:10.779Z,59.70
2019-01-19T16:48:56.542Z,55.53
2019-01-19T16:51:49.601Z,71.47
2019-01-19T16:54:35.464Z,65.00
2019-01-19T16:57:20.818Z,59.33
2019-01-19T17:00:12.639Z,57.17
2019-01-19T17:03:01.689Z,61.20
2019-01-19T17:05:47.587Z,70.73
2019-01-19T17:08:27.288Z,66.40
2019-01-19T17:11:10.055Z,63.63
2019-01-19T17:13:58.230Z,64.60
2019-01-19T17:16:49.852Z,62.03
2019-01-19T17:19:29.587Z,58.20
2019-01-19T17:22:14.930Z,60.37
2019-01-19T17:25:14.862Z,62.83
2019-01-19T17:28:03.352Z,69.43
2019-01-19T17:31:01.435Z,71.33
2019-01-19T17:33:59.164Z,75.10
2019-01-19T17:36:55.256Z,80.77
2019-01-19T17:39:40.254Z,76.13
2019-01-19T17:42:36.852Z,78.97
2019-01-19T17:45:31.104Z,77.43
2019-01-19T17:48:41.016Z,73.50
2019-01-19T17:51:32.809Z,65.17
2019-01-19T17:54:29.596Z,70.27
2019-01-19T17:57:14.977Z,68.50
2019-01-19T18:00:02.472Z,67.27
2019-01-19T18:02:48.409Z,69.33
2019-01-19T18:05:43.328Z,57.60
2019-01-19T18:08:38.300Z,60.50
2019-01-19T18:11:37.282Z,60.20
2019-01-19T18:14:35.334Z,57.20
2019-01-19T18:17:17.943Z,55.90
2019-01-19T18:19:54.643Z,52.17
2019-01-19T18:22:55.243Z,45.47
2019-01-19T18:25:41.358Z,48.23
2019-01-19T18:28:36.465Z,54.63
2019-01-19T18:31:31.000Z,45.47
2019-01-19T18:34:44.227Z,59.00
2019-01-19T18:37:54.232Z,62.17
2019-01-19T18:40:45.270Z,62.00
2019-01-19T18:43:47.443Z,60.87
2019-01-19T18:46:46.483Z,65.40
2019-01-19T18:49:48.903Z,63.57
2019-01-19T18:52:25.567Z,53.17
2019-01-19T18:55:10.970Z,58.77
2019-01-19T18:58:02.658Z,47.23
2019-01-19T19:00:41.841Z,63.97
2019-01-19T19:03:49.807Z,52.80
2019-01-19T19:06:38.203Z,49.30
2019-01-19T19:09:39.066Z,47.00
2019-01-19T19:12:42.648Z,52.90
2019-01-19T19:15:19.725Z,49.60
2019-01-19T19:18:16.333Z,53.17
2019-01-19T19:21:24.059Z,52.70
2019-01-19T19:24:04.766Z,56.50
2019-01-19T19:26:57.985Z,62.43
2019-01-19T19:29:40.721Z,58.43
2019-01-19T19:32:36.054Z,61.43
2019-01-19T19:35:18.384Z,58.30
2019-01-19T19:37:55.069Z,62.57
2019-01-19T19:40:40.827Z,60.77
2019-01-19T19:43:23.494Z,56.20
2019-01-19T19:46:06.217Z,48.83
2019-01-19T19:49:08.371Z,44.63
2019-01-19T19:52:08.337Z,47.70
2019-01-19T19:54:53.902Z,41.83
2019-01-19T19:57:27.481Z,44.23
2019-01-19T20:00:01.277Z,45.67
2019-01-19T20:02:34.879Z,46.50
2019-01-19T20:05:32.645Z,49.43
2019-01-19T20:08:06.401Z,50.70
2019-01-19T20:10:40.103Z,35.57
2019-01-19T20:13:19.919Z,36.43
2019-01-19T20:15:53.522Z,45.70
2019-01-19T20:18:27.161Z,40.50
2019-01-19T20:21:10.306Z,43.67
2019-01-19T20:23:56.123Z,39.43
2019-01-19T20:26:29.869Z,45.77
2019-01-19T20:29:03.642Z,34.30
2019-01-19T20:31:37.313Z,39.10
2019-01-19T20:34:11.020Z,36.70
2019-01-19T20:36:44.756Z,34.73
2019-01-19T20:39:18.533Z,29.53
2019-01-19T20:41:52.133Z,38.97
2019-01-19T20:44:34.914Z,42.70
2019-01-19T20:47:08.646Z,37.10
2019-01-19T20:49:42.343Z,40.83
2019-01-19T20:52:28.131Z,37.50
2019-01-19T20:55:01.777Z,36.93
2019-01-19T20:57:35.543Z,40.43
2019-01-19T21:00:13.018Z,44.97
2019-01-19T21:02:46.654Z,43.90
2019-01-19T21:05:20.447Z,40.53
2019-01-19T21:08:09.210Z,42.53
2019-01-19T21:10:42.824Z,38.60
2019-01-19T21:13:16.432Z,48.53
2019-01-19T21:15:50.202Z,47.60
2019-01-19T21:18:30.052Z,43.53
2019-01-19T21:21:03.820Z,49.10
2019-01-19T21:23:37.494Z,53.37
2019-01-19T21:26:11.263Z,48.63
2019-01-19T21:29:03.158Z,67.07
2019-01-19T21:31:36.850Z,56.30
2019-01-19T21:34:10.551Z,48.53
2019-01-19T21:36:44.189Z,45.20
2019-01-19T21:39:17.931Z,52.10
2019-01-19T21:41:51.701Z,46.07
2019-01-19T21:44:40.465Z,40.93
2019-01-19T21:47:14.087Z,44.27
2019-01-19T21:49:47.840Z,47.47
2019-01-19T21:52:21.553Z,43.07
2019-01-19T21:54:55.147Z,43.60
2019-01-19T21:57:41.197Z,43.33
2019-01-19T22:00:19.500Z,51.13
2019-01-19T22:02:53.103Z,55.53
2019-01-19T22:05:26.741Z,67.20
2019-01-19T22:08:00.387Z,45.93
2019-01-19T22:10:37.529Z,67.93
2019-01-19T22:13:11.303Z,60.60
2019-01-19T22:15:44.982Z,51.40
2019-01-19T22:18:45.243Z,48.70
2019-01-19T22:21:19.257Z,61.70
2019-01-19T22:23:52.891Z,39.20
2019-01-19T22:26:27.070Z,45.83
2019-01-19T22:29:00.691Z,51.23
2019-01-19T22:31:37.324Z,49.83
2019-01-19T22:34:10.989Z,38.63
2019-01-19T22:36:44.739Z,42.07
2019-01-19T22:39:18.377Z,43.63
2019-01-19T22:41:51.983Z,57.40
2019-01-19T22:44:25.675Z,48.27
2019-01-19T22:47:08.762Z,64.67
2019-01-19T22:49:42.447Z,37.43
2019-01-19T22:52:18.119Z,41.83
2019-01-19T22:54:51.861Z,37.97
2019-01-19T22:57:25.470Z,41.67
2019-01-19T23:00:27.290Z,35.10
2019-01-19T23:03:00.979Z,34.53
2019-01-19T23:05:34.645Z,60.43
2019-01-19T23:08:08.613Z,35.33
2019-01-19T23:10:42.228Z,60.80
2019-01-19T23:13:25.004Z,34.93
2019-01-19T23:15:58.698Z,34.27
2019-01-19T23:18:32.360Z,37.33
2019-01-19T23:21:09.718Z,39.77
2019-01-19T23:23:43.382Z,25.07
2019-01-19T23:26:17.401Z,30.17
2019-01-19T23:29:00.398Z,41.37
2019-01-19T23:31:34.185Z,42.83
2019-01-19T23:34:07.847Z,41.00
2019-01-19T23:36:41.631Z,29.27
2019-01-19T23:39:15.285Z,34.23
2019-01-19T23:41:49.024Z,26.17
2019-01-19T23:44:34.735Z,27.37
2019-01-19T23:47:08.369Z,28.67
2019-01-19T23:49:41.965Z,42.83
2019-01-19T23:52:15.661Z,35.93
2019-01-19T23:54:49.424Z,33.53
2019-01-19T23:57:23.048Z,43.67
2019-01-19T23:59:58.290Z,42.03
